Time;durP1;ratioP1;P1;durP2;ratioP2;P2;SDS_P1;SDS_P2;PMS_P1;PMS_P2;Temp;Humidity;BMP_temperature;BMP_pressure;BME280_temperature;BME280_humidity;BME280_pressure;Samples;Min_cycle;Max_cycle;Signal;HPM_P1;HPM_P2
2021/08/25 00:01:01;;;;;;;13.69;8.33;;;;;;;;;;356570;149;858705;-57
2021/08/25 00:02:02;;;;;;;14.05;8.31;;;;;;;;;;356227;149;857291;-57
2021/08/25 00:03:05;;;;;;;13.22;8.60;;;;;;;;;;354725;149;859618;-57
2021/08/25 00:04:07;;;;;;;12.46;8.58;;;;;;;;;;357674;150;866699;-57
2021/08/25 00:05:09;;;;;;;17.02;8.84;;;;;;;;;;355207;150;857166;-57
2021/08/25 00:06:12;;;;;;;12.55;8.34;;;;;;;;;;354119;149;858231;-58
2021/08/25 00:07:13;;;;;;;14.04;8.61;;;;;;;;;;352584;150;857386;-58
2021/08/25 00:08:15;;;;;;;14.39;8.29;;;;;;;;;;357170;150;857313;-58
2021/08/25 00:09:16;;;;;;;11.29;8.04;;;;;;;;;;357151;149;857321;-58
2021/08/25 00:10:19;;;;;;;13.19;8.16;;;;;;;;;;355046;149;857438;-58
2021/08/25 00:11:21;;;;;;;15.04;8.39;;;;;;;;;;355640;150;857481;-57
2021/08/25 00:12:23;;;;;;;15.80;8.79;;;;;;;;;;357701;150;859121;-57
2021/08/25 00:13:24;;;;;;;12.98;8.65;;;;;;;;;;357586;149;857285;-57
2021/08/25 00:14:26;;;;;;;16.26;9.14;;;;;;;;;;355974;150;859189;-58
2021/08/25 00:15:28;;;;;;;12.72;8.43;;;;;;;;;;357782;150;858212;-58
2021/08/25 00:16:30;;;;;;;11.96;9.01;;;;;;;;;;357582;149;859946;-58
2021/08/25 00:17:32;;;;;;;13.06;8.52;;;;;;;;;;357329;149;865348;-58
2021/08/25 00:18:33;;;;;;;14.59;8.06;;;;;;;;;;354011;150;864969;-58
2021/08/25 00:19:35;;;;;;;15.12;8.70;;;;;;;;;;355745;150;857288;-57
2021/08/25 00:20:38;;;;;;;17.13;8.43;;;;;;;;;;357169;149;857849;-58
2021/08/25 00:21:40;;;;;;;14.59;8.19;;;;;;;;;;355926;150;857368;-58
2021/08/25 00:22:41;;;;;;;13.61;8.96;;;;;;;;;;354683;150;857787;-58
2021/08/25 00:23:43;;;;;;;15.11;8.53;;;;;;;;;;356517;149;858081;-57
2021/08/25 00:24:44;;;;;;;15.83;8.20;;;;;;;;;;354027;149;857366;-57
2021/08/25 00:25:46;;;;;;;15.60;8.58;;;;;;;;;;357041;149;859588;-57
2021/08/25 00:26:48;;;;;;;16.38;8.69;;;;;;;;;;355729;149;858770;-58
2021/08/25 00:27:50;;;;;;;15.27;8.69;;;;;;;;;;356759;149;866052;-58
2021/08/25 00:28:51;;;;;;;14.57;8.71;;;;;;;;;;358372;150;859803;-57
2021/08/25 00:29:53;;;;;;;14.74;7.96;;;;;;;;;;356861;149;857241;-58
2021/08/25 00:30:55;;;;;;;14.11;8.07;;;;;;;;;;356672;150;857306;-58
2021/08/25 00:31:56;;;;;;;13.42;7.89;;;;;;;;;;353465;150;857277;-57
2021/08/25 00:32:58;;;;;;;14.88;8.79;;;;;;;;;;355273;150;857200;-57
2021/08/25 00:34:00;;;;;;;13.01;8.45;;;;;;;;;;357059;149;858969;-57
2021/08/25 00:35:01;;;;;;;13.95;8.09;;;;;;;;;;357286;149;858261;-57
2021/08/25 00:36:03;;;;;;;14.13;8.95;;;;;;;;;;357491;150;859094;-57
2021/08/25 00:37:05;;;;;;;11.95;8.75;;;;;;;;;;355036;150;865801;-57
2021/08/25 00:38:06;;;;;;;14.86;8.39;;;;;;;;;;355899;149;858770;-57
2021/08/25 00:39:08;;;;;;;14.14;8.56;;;;;;;;;;356223;150;857775;-57
2021/08/25 00:40:10;;;;;;;11.84;8.36;;;;;;;;;;352166;150;857189;-57
2021/08/25 00:41:12;;;;;;;14.43;8.52;;;;;;;;;;355896;150;864974;-57
2021/08/25 00:42:13;;;;;;;13.97;8.82;;;;;;;;;;354858;149;858432;-58
2021/08/25 00:43:15;;;;;;;13.74;8.74;;;;;;;;;;355403;150;857398;-58
2021/08/25 00:44:17;;;;;;;10.76;8.24;;;;;;;-147.14;69.90;112914.44;354771;150;857342;-58
2021/08/25 00:45:18;;;;;;;15.50;8.52;;;;;;;;;;357357;150;857312;-57
2021/08/25 00:46:20;;;;;;;15.15;8.53;;;;;;;;;;355059;149;857380;-57
2021/08/25 00:47:22;;;;;;;14.69;8.47;;;;;;;;;;356624;150;857338;-57
2021/08/25 00:48:23;;;;;;;12.49;8.14;;;;;;;;;;356856;150;857417;-57
2021/08/25 00:49:25;;;;;;;12.29;8.09;;;;;;;;;;356523;149;859679;-57
2021/08/25 00:50:27;;;;;;;12.23;8.45;;;;;;;;;;356013;150;858861;-57
2021/08/25 00:51:28;;;;;;;18.88;8.78;;;;;;;;;;353851;149;859408;-57
2021/08/25 00:52:30;;;;;;;14.42;8.64;;;;;;;;;;357040;149;858776;-57
2021/08/25 00:53:32;;;;;;;18.21;8.47;;;;;;;;;;355984;150;857203;-57
2021/08/25 00:54:33;;;;;;;12.25;9.23;;;;;;;;;;357389;150;857307;-58
2021/08/25 00:55:35;;;;;;;15.58;9.14;;;;;;;;;;356160;150;865360;-57
2021/08/25 00:56:38;;;;;;;12.49;8.35;;;;;;;;;;357142;149;865145;-57
2021/08/25 00:57:43;;;;;;;17.81;9.09;;;;;;;;;;354769;150;857261;-57
2021/08/25 00:58:44;;;;;;;13.98;9.14;;;;;;;;;;353881;150;860573;-58
2021/08/25 00:59:46;;;;;;;16.27;8.91;;;;;;;;;;356884;149;857340;-57
2021/08/25 01:00:54;;;;;;;13.85;9.29;;;;;;;;;;357793;150;865971;-58
2021/08/25 01:01:58;;;;;;;15.55;9.14;;;;;;;;;;352476;150;858462;-57
2021/08/25 01:03:01;;;;;;;14.14;9.26;;;;;;;;;;356939;149;857428;-57
2021/08/25 01:04:05;;;;;;;14.18;8.79;;;;;;;;;;357610;150;857703;-57
2021/08/25 01:05:07;;;;;;;14.23;8.46;;;;;;;;;;353242;150;865498;-57
2021/08/25 01:06:10;;;;;;;14.31;8.85;;;;;;;;;;356150;150;858142;-57
2021/08/25 01:07:11;;;;;;;16.55;9.21;;;;;;;;;;357271;149;859107;-57
2021/08/25 01:08:13;;;;;;;14.28;8.91;;;;;;;;;;357574;150;866706;-58
2021/08/25 01:09:14;;;;;;;13.29;8.66;;;;;;;;;;357296;150;859838;-58
2021/08/25 01:10:25;;;;;;;14.31;8.78;;;;;;;;;;355496;149;859305;-57
2021/08/25 01:11:27;;;;;;;13.02;9.41;;;;;;;;;;354484;150;858352;-57
2021/08/25 01:12:28;;;;;;;18.53;9.68;;;;;;;;;;355867;150;857273;-57
2021/08/25 01:13:30;;;;;;;15.04;8.74;;;;;;;;;;355305;150;858895;-57
2021/08/25 01:14:31;;;;;;;19.31;9.08;;;;;;;;;;356819;149;858106;-57
2021/08/25 01:15:33;;;;;;;16.53;9.09;;;;;;;;;;356877;150;857569;-58
2021/08/25 01:16:37;;;;;;;17.14;8.98;;;;;;;;;;355523;150;859350;-57
2021/08/25 01:17:39;;;;;;;14.97;9.21;;;;;;;;;;355773;149;865038;-57
2021/08/25 01:18:41;;;;;;;15.12;9.29;;;;;;;;;;357562;150;858989;-57
2021/08/25 01:19:47;;;;;;;14.04;9.10;;;;;;;;;;357350;150;858673;-59
2021/08/25 01:20:49;;;;;;;12.16;8.82;;;;;;;;;;356424;150;865233;-58
2021/08/25 01:21:51;;;;;;;17.31;9.14;;;;;;;;;;356712;150;857272;-58
2021/08/25 01:22:53;;;;;;;17.14;8.88;;;;;;;;;;355164;150;857568;-58
2021/08/25 01:23:54;;;;;;;18.07;9.48;;;;;;;;;;356716;150;857256;-59
2021/08/25 01:24:56;;;;;;;14.50;8.91;;;;;;;;;;356579;149;866798;-58
2021/08/25 01:25:58;;;;;;;12.82;8.90;;;;;;;;;;357316;150;857293;-58
2021/08/25 01:27:02;;;;;;;15.46;9.27;;;;;;;;;;356927;150;857658;-58
2021/08/25 01:28:05;;;;;;;13.18;9.36;;;;;;;;;;357502;149;857875;-58
2021/08/25 01:29:21;;;;;;;14.38;9.59;;;;;;;;;;354849;150;865910;-58
2021/08/25 01:30:25;;;;;;;15.47;8.94;;;;;;;;;;354195;150;859542;-58
2021/08/25 01:31:26;;;;;;;14.83;9.71;;;;;;;;;;357591;149;857642;-58
2021/08/25 01:32:28;;;;;;;14.48;9.69;;;;;;;;;;356720;150;858718;-58
2021/08/25 01:33:30;;;;;;;14.70;10.43;;;;;;;;;;357382;150;857572;-58
2021/08/25 01:34:33;;;;;;;17.92;11.59;;;;;;;;;;355732;149;857307;-58
2021/08/25 01:35:40;;;;;;;17.98;11.61;;;;;;;;;;354529;150;857293;-57
2021/08/25 01:36:42;;;;;;;17.34;12.23;;;;;;;;;;356933;150;858402;-58
2021/08/25 01:37:44;;;;;;;17.46;11.54;;;;;;;;;;356999;149;859660;-58
2021/08/25 01:38:50;;;;;;;20.47;12.29;;;;;;;;;;356690;149;858197;-58
2021/08/25 01:39:55;;;;;;;17.86;11.81;;;;;;;;;;357248;150;865561;-59
2021/08/25 01:40:57;;;;;;;21.01;12.28;;;;;;;;;;353527;150;859736;-58
2021/08/25 01:41:59;;;;;;;16.56;11.91;;;;;;;;;;356064;149;859032;-57
2021/08/25 01:43:05;;;;;;;20.30;12.15;;;;;;;;;;357268;149;864831;-57
2021/08/25 01:44:07;;;;;;;18.51;12.28;;;;;;;;;;357184;150;865990;-58
2021/08/25 01:45:09;;;;;;;18.65;11.90;;;;;;;;;;356266;150;859392;-58
2021/08/25 01:46:22;;;;;;;18.88;11.70;;;;;;;;;;356195;150;859718;-58
2021/08/25 01:47:23;;;;;;;18.14;11.11;;;;;;;;;;358060;150;866062;-58
2021/08/25 01:48:25;;;;;;;16.62;10.92;;;;;;;;;;357260;150;857155;-58
2021/08/25 01:49:27;;;;;;;17.79;10.99;;;;;;;;;;354372;149;859057;-58
2021/08/25 01:50:30;;;;;;;22.17;11.62;;;;;;;;;;352474;150;857262;-58
2021/08/25 01:51:31;;;;;;;18.95;12.20;;;;;;;;;;357791;150;859488;-59
2021/08/25 01:52:33;;;;;;;20.80;11.62;;;;;;;;;;356834;150;858981;-59
2021/08/25 01:53:35;;;;;;;16.59;11.09;;;;;;;;;;355970;149;857198;-58
2021/08/25 01:54:37;;;;;;;17.35;11.49;;;;;;;;;;357032;150;857242;-58
2021/08/25 01:55:38;;;;;;;18.19;11.17;;;;;;;;;;357358;149;857204;-57
2021/08/25 01:56:42;;;;;;;18.12;11.71;;;;;;;;;;356450;149;857264;-58
2021/08/25 01:57:44;;;;;;;23.00;12.20;;;;;;;;;;355125;150;859781;-59
2021/08/25 01:58:45;;;;;;;17.82;11.73;;;;;;;;;;353135;150;864773;-58
2021/08/25 01:59:47;;;;;;;21.90;11.86;;;;;;;;;;354897;150;864665;-57
2021/08/25 02:00:48;;;;;;;18.19;12.47;;;;;;;;;;357791;149;857194;-58
2021/08/25 02:01:50;;;;;;;18.69;12.06;;;;;;;;;;356953;150;857260;-58
2021/08/25 02:02:52;;;;;;;18.26;11.59;;;;;;;;;;355071;150;865638;-58
2021/08/25 02:03:53;;;;;;;16.72;12.26;;;;;;;;;;356365;149;859294;-58
2021/08/25 02:04:55;;;;;;;18.78;12.11;;;;;;;;;;354971;150;858824;-58
2021/08/25 02:05:56;;;;;;;19.89;12.21;;;;;;;;;;353547;150;858316;-58
2021/08/25 02:07:00;;;;;;;17.52;11.59;;;;;;;;;;355764;149;858385;-58
2021/08/25 02:08:01;;;;;;;22.04;12.47;;;;;;;;;;355386;150;857234;-57
2021/08/25 02:09:03;;;;;;;16.10;11.58;;;;;;;;;;356034;150;858826;-58
2021/08/25 02:10:05;;;;;;;21.48;12.62;;;;;;;;;;356615;149;857310;-58
2021/08/25 02:11:07;;;;;;;16.52;11.61;;;;;;;;;;355617;149;864836;-58
2021/08/25 02:12:09;;;;;;;19.96;11.98;;;;;;;;;;354787;150;857831;-57
2021/08/25 02:13:11;;;;;;;19.63;11.27;;;;;;;;;;356583;150;857163;-57
2021/08/25 02:14:12;;;;;;;17.27;11.84;;;;;;;;;;356707;149;858888;-59
2021/08/25 02:15:14;;;;;;;17.79;11.96;;;;;;;;;;351936;150;857437;-58
2021/08/25 02:16:16;;;;;;;19.37;12.09;;;;;;;;;;354090;150;864652;-57
2021/08/25 02:17:18;;;;;;;16.20;11.74;;;;;;;;;;357266;149;865137;-57
2021/08/25 02:18:20;;;;;;;14.76;11.79;;;;;;;;;;353834;149;857886;-57
2021/08/25 02:19:21;;;;;;;19.84;11.72;;;;;;;;;;357099;150;859028;-57
2021/08/25 02:20:23;;;;;;;16.31;11.75;;;;;;;;;;354681;150;859743;-57
2021/08/25 02:21:25;;;;;;;20.56;12.11;;;;;;;;;;357535;149;858297;-57
2021/08/25 02:22:27;;;;;;;20.65;12.77;;;;;;;;;;355502;150;858559;-58
2021/08/25 02:23:28;;;;;;;19.14;12.84;;;;;;;;;;353657;150;857733;-58
2021/08/25 02:24:30;;;;;;;18.24;12.72;;;;;;;;;;357107;149;857180;-57
2021/08/25 02:25:31;;;;;;;23.04;12.84;;;;;;;;;;356950;149;857162;-57
2021/08/25 02:26:33;;;;;;;17.98;11.63;;;;;;;;;;355538;150;857284;-58
2021/08/25 02:27:35;;;;;;;16.19;11.27;;;;;;;;;;355316;150;857191;-58
2021/08/25 02:28:36;;;;;;;19.55;12.08;;;;;;;;;;355611;149;864985;-57
2021/08/25 02:29:38;;;;;;;19.36;11.90;;;;;;;;;;355826;150;859779;-57
2021/08/25 02:30:40;;;;;;;19.91;12.18;;;;;;;;;;355651;149;859848;-57
2021/08/25 02:31:42;;;;;;;20.07;11.70;;;;;;;;;;355701;149;857441;-57
2021/08/25 02:32:44;;;;;;;20.22;12.19;;;;;;;;;;355728;149;858186;-57
2021/08/25 02:33:45;;;;;;;18.29;12.10;;;;;;;;;;354764;150;857294;-57
2021/08/25 02:34:47;;;;;;;16.99;12.01;;;;;;;;;;355641;149;866288;-58
2021/08/25 02:35:48;;;;;;;19.59;12.00;;;;;;;;;;355869;149;858889;-57
2021/08/25 02:36:52;;;;;;;19.40;12.27;;;;;;;;;;355558;150;857829;-57
2021/08/25 02:37:53;;;;;;;17.45;11.49;;;;;;;;;;356916;150;857252;-57
2021/08/25 02:38:55;;;;;;;20.33;12.59;;;;;;;;;;356457;149;861592;-57
2021/08/25 02:39:57;;;;;;;18.94;11.81;;;;;;;;;;355090;149;859863;-57
2021/08/25 02:40:58;;;;;;;21.26;12.66;;;;;;;;;;356687;150;865470;-57
2021/08/25 02:42:00;;;;;;;19.56;12.65;;;;;;;;;;354932;149;865420;-57
2021/08/25 02:43:01;;;;;;;18.44;12.53;;;;;;;;;;356268;149;857662;-57
2021/08/25 02:44:03;;;;;;;18.56;12.59;;;;;;;;;;354842;150;857367;-57
2021/08/25 02:45:06;;;;;;;21.07;13.19;;;;;;;;;;357063;150;857729;-57
2021/08/25 02:46:08;;;;;;;19.92;12.69;;;;;;;;;;357202;150;857323;-57
2021/08/25 02:47:11;;;;;;;15.99;12.08;;;;;;;;;;356345;149;865492;-57
2021/08/25 02:48:12;;;;;;;16.31;11.53;;;;;;;;;;354050;150;865327;-58
2021/08/25 02:49:14;;;;;;;18.32;11.74;;;;;;;;;;357362;150;865817;-56
2021/08/25 02:50:17;;;;;;;19.54;11.72;;;;;;;;;;356262;149;857390;-57
2021/08/25 02:51:19;;;;;;;16.11;11.89;;;;;;;;;;356184;149;859574;-56
2021/08/25 02:52:20;;;;;;;15.65;9.80;;;;;;;;;;356095;149;859298;-57
2021/08/25 02:53:22;;;;;;;19.44;11.63;;;;;;;;;;356023;149;857379;-56
2021/08/25 02:54:23;;;;;;;16.59;11.90;;;;;;;;;;355521;149;857355;-57
2021/08/25 02:55:25;;;;;;;19.56;12.35;;;;;;;;;;355650;150;857242;-57
2021/08/25 02:56:28;;;;;;;17.06;12.04;;;;;;;;;;355488;150;857293;-56
2021/08/25 02:57:30;;;;;;;20.61;11.82;;;;;;;;;;356635;149;857222;-57
2021/08/25 02:58:31;;;;;;;24.56;12.04;;;;;;;;;;356387;150;857248;-55
2021/08/25 02:59:33;;;;;;;18.19;12.44;;;;;;;;;;356976;150;859059;-57
2021/08/25 03:00:36;;;;;;;18.78;12.07;;;;;;;;;;356215;150;859290;-56
2021/08/25 03:01:38;;;;;;;18.03;12.41;;;;;;;;;;356126;149;858198;-56
2021/08/25 03:02:39;;;;;;;20.92;12.31;;;;;;;;;;352761;150;858027;-61
2021/08/25 03:03:41;;;;;;;21.53;12.49;;;;;;;;;;356215;150;860123;-58
2021/08/25 03:04:43;;;;;;;18.87;12.70;;;;;;;;;;355888;149;857286;-57
2021/08/25 03:05:44;;;;;;;19.63;12.07;;;;;;;;;;356311;150;864795;-58
2021/08/25 03:06:46;;;;;;;19.38;12.29;;;;;;;;;;357506;150;857314;-58
2021/08/25 03:07:48;;;;;;;19.84;11.95;;;;;;;;;;356304;149;857254;-58
2021/08/25 03:08:49;;;;;;;20.73;11.89;;;;;;;;;;357469;150;857263;-58
2021/08/25 03:09:51;;;;;;;22.15;11.84;;;;;;;;;;357578;150;858862;-56
2021/08/25 03:10:54;;;;;;;15.82;11.76;;;;;;;;;;355019;149;858186;-58
2021/08/25 03:11:56;;;;;;;16.76;11.61;;;;;;;;;;352955;149;857743;-58
2021/08/25 03:12:57;;;;;;;13.88;10.41;;;;;;;;;;355248;150;857312;-57
2021/08/25 03:13:59;;;;;;;17.67;11.49;;;;;;;;;;357008;150;857327;-56
2021/08/25 03:15:01;;;;;;;15.31;11.37;;;;;;;;;;354239;149;859344;-57
2021/08/25 03:16:02;;;;;;;21.59;12.12;;;;;;;;;;357739;150;858750;-57
2021/08/25 03:17:04;;;;;;;16.96;11.26;;;;;;;;;;356137;150;865443;-57
2021/08/25 03:18:06;;;;;;;17.18;11.59;;;;;;;;;;355166;150;864684;-57
2021/08/25 03:19:07;;;;;;;17.39;11.05;;;;;;;;;;354223;149;857220;-56
2021/08/25 03:20:10;;;;;;;17.79;12.01;;;;;;;;;;353183;149;866705;-57
2021/08/25 03:21:12;;;;;;;16.27;11.17;;;;;;;;;;352174;151;857302;-58
2021/08/25 03:22:14;;;;;;;20.15;11.85;;;;;;;;;;352586;149;858701;-58
2021/08/25 03:23:15;;;;;;;14.21;10.65;;;;;;;;;;354963;149;857330;-59
2021/08/25 03:24:17;;;;;;;16.85;11.38;;;;;;;;;;354338;151;857366;-58
2021/08/25 03:25:18;;;;;;;15.81;10.18;;;;;;;;;;354065;149;857292;-58
2021/08/25 03:26:22;;;;;;;15.78;10.97;;;;;;;;;;353122;149;857312;-57
2021/08/25 03:27:23;;;;;;;16.84;9.91;;;;;;;;;;352018;149;858313;-57
2021/08/25 03:28:25;;;;;;;15.55;10.80;;;;;;;;;;352769;150;857193;-57
2021/08/25 03:29:26;;;;;;;16.86;10.30;;;;;;;;;;353122;151;857226;-57
2021/08/25 03:30:28;;;;;;;17.27;10.68;;;;;;;;;;353432;151;857245;-58
2021/08/25 03:31:30;;;;;;;16.22;11.24;;;;;;;;;;354080;151;865406;-58
2021/08/25 03:32:31;;;;;;;14.74;10.74;;;;;;;;;;352688;149;858648;-58
2021/08/25 03:33:33;;;;;;;19.54;11.41;;;;;;;;;;353832;149;859449;-59
2021/08/25 03:34:35;;;;;;;15.19;10.56;;;;;;;;;;353152;149;866712;-59
2021/08/25 03:35:36;;;;;;;14.56;10.86;;;;;;;;;;355595;149;857970;-58
2021/08/25 03:36:39;;;;;;;16.24;11.05;;;;;;;;;;352071;150;864999;-58
2021/08/25 03:37:41;;;;;;;14.75;10.15;;;;;;;;;;352448;151;859620;-58
2021/08/25 03:38:43;;;;;;;15.29;10.48;;;;;;;;;;353523;149;865101;-58
2021/08/25 03:39:44;;;;;;;17.42;10.95;;;;;;;;;;353658;150;857278;-58
2021/08/25 03:40:47;;;;;;;15.07;10.36;;;;;;;;;;353309;150;857381;-58
2021/08/25 03:41:49;;;;;;;15.85;10.41;;;;;;;;;;352460;150;857252;-58
2021/08/25 03:42:51;;;;;;;14.27;10.35;;;;;;;;;;354309;149;857266;-57
2021/08/25 03:43:52;;;;;;;17.14;10.50;;;;;;;;;;353355;150;857334;-58
2021/08/25 03:44:54;;;;;;;14.16;10.27;;;;;;;;;;354503;149;865104;-58
2021/08/25 03:45:55;;;;;;;15.21;9.86;;;;;;;;;;352568;149;857316;-58
2021/08/25 03:46:58;;;;;;;12.47;9.43;;;;;;;;;;352994;150;858235;-57
2021/08/25 03:48:00;;;;;;;12.14;8.31;;;;;;;;;;352866;151;866770;-57
2021/08/25 03:49:01;;;;;;;14.76;8.68;;;;;;;;;;353443;151;857308;-57
2021/08/25 03:50:04;;;;;;;13.00;9.17;;;;;;;;;;352390;150;860829;-58
2021/08/25 03:51:05;;;;;;;14.68;8.43;;;;;;;;;;351604;150;866270;-59
2021/08/25 03:52:07;;;;;;;12.79;8.58;;;;;;;;;;351642;151;857259;-58
2021/08/25 03:53:08;;;;;;;11.31;8.10;;;;;;;;;;354315;151;857265;-59
2021/08/25 03:54:10;;;;;;;12.11;8.44;;;;;;;;;;353018;150;857808;-58
2021/08/25 03:55:11;;;;;;;13.97;8.54;;;;;;;;;;353408;150;859312;-58
2021/08/25 03:56:15;;;;;;;13.27;9.01;;;;;;;;;;351966;151;858156;-58
2021/08/25 03:57:16;;;;;;;16.35;8.98;;;;;;;;;;350869;150;857907;-58
2021/08/25 03:58:18;;;;;;;14.12;8.82;;;;;;;;;;351793;149;866283;-59
2021/08/25 03:59:19;;;;;;;14.04;9.37;;;;;;;;;;346096;154;859181;-57
2021/08/25 04:00:21;;;;;;;13.99;9.21;;;;;;;;;;340300;155;858679;-58
2021/08/25 04:01:23;;;;;;;13.83;9.21;;;;;;;;;;339907;156;856688;-58
2021/08/25 04:02:24;;;;;;;16.40;9.54;;;;;;;;;;339094;156;865071;-59
2021/08/25 04:03:26;;;;;;;13.83;9.04;;;;;;;;;;336795;157;857244;-58
2021/08/25 04:04:27;;;;;;;16.08;9.90;;;;;;;;;;341150;156;857272;-59
2021/08/25 04:05:29;;;;;;;15.64;9.41;;;;;;;;;;345068;153;859195;-59
2021/08/25 04:06:31;;;;;;;16.64;9.99;;;;;;;;;;337837;156;858181;-59
2021/08/25 04:07:33;;;;;;;15.91;9.28;;;;;;;;;;341844;156;857411;-60
2021/08/25 04:08:35;;;;;;;15.00;9.57;;;;;;;;;;338856;154;865663;-59
2021/08/25 04:09:36;;;;;;;20.22;11.01;;;;;;;;;;346084;153;857288;-60
2021/08/25 04:10:39;;;;;;;17.05;9.92;;;;;;;;;;342251;155;865082;-59
2021/08/25 04:11:40;;;;;;;17.89;9.27;;;;;;;;;;340216;155;857355;-60
2021/08/25 04:12:42;;;;;;;13.69;9.60;;;;;;;;;;339031;157;857317;-60
2021/08/25 04:13:44;;;;;;;13.99;9.39;;;;;;;;;;339935;156;865040;-59
2021/08/25 04:14:45;;;;;;;16.71;9.21;;;;;;;;;;339910;157;857241;-59
2021/08/25 04:15:47;;;;;;;11.96;8.96;;;;;;;;;;339432;156;857370;-59
2021/08/25 04:16:49;;;;;;;16.48;9.18;;;;;;;;;;339922;155;857419;-61
2021/08/25 04:17:50;;;;;;;13.25;9.09;;;;;;;;;;342136;155;857278;-61
2021/08/25 04:18:52;;;;;;;14.66;9.46;;;;;;;;;;341557;155;859726;-61
2021/08/25 04:19:53;;;;;;;15.34;9.06;;;;;;;;;;341837;154;858703;-58
2021/08/25 04:20:55;;;;;;;14.03;9.38;;;;;;;;;;342472;156;858701;-60
2021/08/25 04:21:57;;;;;;;17.54;9.54;;;;;;;;;;339416;154;859533;-59
2021/08/25 04:22:59;;;;;;;19.41;9.95;;;;;;;;;;337491;157;857371;-59
2021/08/25 04:24:00;;;;;;;15.05;9.59;;;;;;;;;;344346;151;857246;-60
2021/08/25 04:25:02;;;;;;;15.46;9.70;;;;;;;;;;351341;151;857177;-58
2021/08/25 04:26:04;;;;;;;17.15;9.57;;;;;;;;;;352871;151;857111;-59
2021/08/25 04:27:05;;;;;;;20.69;9.68;;;;;;;;;;354189;150;857269;-59
2021/08/25 04:28:08;;;;;;;16.96;9.53;;;;;;;;;;354477;150;857372;-58
2021/08/25 04:29:09;;;;;;;16.25;10.21;;;;;;;;;;353948;151;858950;-58
2021/08/25 04:30:11;;;;;;;16.65;10.00;;;;;;;;;;353637;151;857243;-60
2021/08/25 04:31:13;;;;;;;16.09;9.89;;;;;;;;;;351807;150;858952;-60
2021/08/25 04:32:14;;;;;;;13.21;9.63;;;;;;;;;;352121;151;859975;-61
2021/08/25 04:33:16;;;;;;;17.34;9.89;;;;;;;;;;350906;151;857372;-60
2021/08/25 04:34:18;;;;;;;12.38;9.72;;;;;;;;;;353183;150;857778;-64
2021/08/25 04:35:19;;;;;;;12.54;9.48;;;;;;;;;;353159;151;857679;-59
2021/08/25 04:36:21;;;;;;;17.01;10.19;;;;;;;;;;350026;151;857304;-64
2021/08/25 04:37:23;;;;;;;16.16;9.91;;;;;;;;;;352924;150;857833;-64
2021/08/25 04:38:25;;;;;;;13.02;9.94;;;;;;;;;;353105;150;857319;-63
2021/08/25 04:39:26;;;;;;;15.20;10.01;;;;;;;;;;350793;151;867119;-65
2021/08/25 04:40:30;;;;;;;18.11;10.15;;;;;;;;;;353684;151;858087;-62
2021/08/25 04:41:31;;;;;;;15.74;10.31;;;;;;;;;;352698;150;857199;-65
2021/08/25 04:42:33;;;;;;;14.01;9.79;;;;;;;;;;355077;151;859057;-66
2021/08/25 04:43:34;;;;;;;18.19;10.21;;;;;;;;;;352358;151;865004;-66
2021/08/25 04:44:36;;;;;;;17.86;10.71;;;;;;;;;;353100;151;857348;-66
2021/08/25 04:45:38;;;;;;;12.63;8.79;;;;;;;;;;354057;151;857419;-65
2021/08/25 04:46:41;;;;;;;16.38;9.23;;;;;;;;;;355208;151;857430;-65
2021/08/25 04:47:42;;;;;;;14.99;9.73;;;;;;;;;;355808;151;859011;-66
2021/08/25 04:48:44;;;;;;;13.51;9.73;;;;;;;;;;352393;150;861409;-60
2021/08/25 04:49:46;;;;;;;14.83;10.11;;;;;;;;;;353917;151;857813;-61
2021/08/25 04:50:49;;;;;;;15.23;9.71;;;;;;;;;;355300;151;864968;-60
2021/08/25 04:51:50;;;;;;;17.86;9.36;;;;;;;;;;353279;150;859967;-61
2021/08/25 04:52:52;;;;;;;14.71;9.05;;;;;;;;;;347752;151;857430;-63
2021/08/25 04:53:53;;;;;;;19.24;9.89;;;;;;;;;;342895;156;857368;-61
2021/08/25 04:54:55;;;;;;;19.04;10.09;;;;;;;;;;335526;159;857202;-61
2021/08/25 04:55:57;;;;;;;13.90;9.06;;;;;;;;;;347773;153;865339;-60
2021/08/25 04:57:00;;;;;;;16.59;9.39;;;;;;;;;;353372;151;857256;-59
2021/08/25 04:58:02;;;;;;;15.98;9.65;;;;;;;;;;352001;151;857936;-60
2021/08/25 04:59:04;;;;;;;13.25;9.63;;;;;;;;;;352330;151;857545;-63
2021/08/25 05:00:06;;;;;;;12.97;9.38;;;;;;;;;;354820;150;857402;-60
2021/08/25 05:01:08;;;;;;;14.33;9.81;;;;;;;;;;352548;151;858331;-59
2021/08/25 05:02:10;;;;;;;15.62;10.29;;;;;;;;;;351445;151;858912;-62
2021/08/25 05:03:11;;;;;;;15.54;9.35;;;;;;;;;;353926;150;858954;-63
2021/08/25 05:04:13;;;;;;;17.48;9.09;;;;;;;;;;354295;151;859163;-64
2021/08/25 05:05:15;;;;;;;13.04;9.19;;;;;;;;;;352857;151;866384;-62
2021/08/25 05:06:17;;;;;;;14.25;9.03;;;;;;;;;;354033;150;859384;-62
2021/08/25 05:07:19;;;;;;;12.51;9.06;;;;;;;;;;350332;151;857264;-60
2021/08/25 05:08:21;;;;;;;13.68;8.91;;;;;;;;;;349107;154;857367;-60
2021/08/25 05:09:23;;;;;;;16.19;9.21;;;;;;;;;;352583;151;857081;-60
2021/08/25 05:10:25;;;;;;;17.17;10.01;;;;;;;;;;352305;150;859057;-60
2021/08/25 05:11:26;;;;;;;12.24;8.87;;;;;;;;;;352333;151;857900;-60
2021/08/25 05:12:28;;;;;;;13.98;9.11;;;;;;;;;;351051;151;858946;-60
2021/08/25 05:13:30;;;;;;;14.61;9.49;;;;;;;;;;352848;150;859626;-62
2021/08/25 05:14:32;;;;;;;17.41;9.62;;;;;;;;;;354692;151;865457;-63
2021/08/25 05:15:34;;;;;;;14.35;9.55;;;;;;;;;;349620;151;860299;-62
2021/08/25 05:16:36;;;;;;;16.67;9.79;;;;;;;;;;353388;150;858738;-62
2021/08/25 05:17:38;;;;;;;14.21;9.11;;;;;;;;;;352111;150;857839;-61
2021/08/25 05:18:40;;;;;;;16.61;9.75;;;;;;;;;;352395;151;857353;-60
2021/08/25 05:19:41;;;;;;;13.84;9.96;;;;;;;;;;354079;151;857244;-60
2021/08/25 05:20:43;;;;;;;18.75;9.73;;;;;;;;;;352962;150;857352;-60
2021/08/25 05:21:45;;;;;;;14.96;9.81;;;;;;;;;;352304;151;857374;-60
2021/08/25 05:22:46;;;;;;;15.78;10.06;;;;;;;;;;353983;152;859117;-60
2021/08/25 05:23:48;;;;;;;15.20;10.06;;;;;;;;;;351583;151;857455;-61
2021/08/25 05:24:49;;;;;;;13.86;10.40;;;;;;;;;;353494;150;857280;-61
2021/08/25 05:25:51;;;;;;;13.31;10.19;;;;;;;;;;349632;150;859127;-60
2021/08/25 05:26:53;;;;;;;15.39;9.92;;;;;;;;;;347533;150;859105;-61
2021/08/25 05:27:54;;;;;;;14.31;10.42;;;;;;;;;;353809;151;857363;-60
2021/08/25 05:28:56;;;;;;;15.96;10.56;;;;;;;;;;352714;152;857228;-60
2021/08/25 05:29:58;;;;;;;17.77;10.62;;;;;;;;;;354013;150;857282;-60
2021/08/25 05:31:00;;;;;;;14.68;10.13;;;;;;;;;;352050;151;866596;-60
2021/08/25 05:32:01;;;;;;;16.29;11.54;;;;;;;;;;351375;151;858819;-60
2021/08/25 05:33:03;;;;;;;18.51;11.17;;;;;;;;;;352975;150;857361;-62
2021/08/25 05:34:05;;;;;;;16.84;10.83;;;;;;;;;;353509;151;864932;-62
2021/08/25 05:35:07;;;;;;;14.67;10.74;;;;;;;;;;352359;151;857375;-61
2021/08/25 05:36:09;;;;;;;15.21;11.12;;;;;;;;;;352005;152;857266;-62
2021/08/25 05:37:10;;;;;;;16.70;11.64;;;;;;;;;;352869;151;858643;-62
2021/08/25 05:38:12;;;;;;;18.21;11.69;;;;;;;;;;353339;151;857243;-62
2021/08/25 05:39:13;;;;;;;16.51;11.02;;;;;;;;;;354925;149;857266;-62
2021/08/25 05:40:16;;;;;;;18.86;11.75;;;;;;;;;;355424;149;857287;-61
2021/08/25 05:41:17;;;;;;;16.91;11.63;;;;;;;;;;352476;150;857359;-61
2021/08/25 05:42:19;;;;;;;21.05;11.86;;;;;;;;;;352603;151;866089;-60
2021/08/25 05:43:20;;;;;;;18.81;11.61;;;;;;;;;;352718;150;859898;-62
2021/08/25 05:44:22;;;;;;;16.16;11.79;;;;;;;;;;354713;149;858415;-61
2021/08/25 05:45:24;;;;;;;16.61;11.46;;;;;;;;;;352324;149;857374;-61
2021/08/25 05:46:26;;;;;;;17.42;12.31;;;;;;;;;;352360;149;857263;-61
2021/08/25 05:47:27;;;;;;;16.14;11.94;;;;;;;;;;353322;149;857183;-61
2021/08/25 05:48:29;;;;;;;16.61;11.78;;;;;;;;;;352620;149;857237;-61
2021/08/25 05:49:30;;;;;;;19.40;11.67;;;;;;;;;;352907;150;857223;-61
2021/08/25 05:50:32;;;;;;;17.21;11.93;;;;;;;;;;352751;151;857329;-61
2021/08/25 05:51:34;;;;;;;21.51;12.36;;;;;;;;;;353579;150;857356;-61
2021/08/25 05:52:35;;;;;;;16.04;12.11;;;;;;;;;;353936;151;858999;-61
2021/08/25 05:53:37;;;;;;;16.58;11.98;;;;;;;;;;353080;150;859473;-61
2021/08/25 05:54:39;;;;;;;18.60;11.91;;;;;;;;;;353697;150;858062;-61
2021/08/25 05:55:40;;;;;;;18.61;11.44;;;;;;;;;;352769;151;857271;-61
2021/08/25 05:56:42;;;;;;;15.79;11.69;;;;;;;;;;352249;151;857243;-61
2021/08/25 05:57:46;;;;;;;17.66;11.60;;;;;;;;;;352537;151;856466;-61